sensor_id;sensor_type;location;lat;lon;timestamp;pressure;altitude;pressure_sealevel;temperature;humidity
21547;BME280;41275;51.912;4.388;2023-07-16T00:03:57;100730.88;;;24.24;40.82
21547;BME280;41275;51.912;4.388;2023-07-16T00:09:18;100740.91;;;24.24;40.76
21547;BME280;41275;51.912;4.388;2023-07-16T00:14:39;100735.69;;;24.19;40.78
21547;BME280;41275;51.912;4.388;2023-07-16T00:20:01;100749.53;;;24.17;41.00
21547;BME280;41275;51.912;4.388;2023-07-16T00:25:22;100746.34;;;24.15;40.94
21547;BME280;41275;51.912;4.388;2023-07-16T00:30:43;100738.06;;;24.12;41.11
21547;BME280;41275;51.912;4.388;2023-07-16T00:36:04;100733.28;;;24.09;41.32
21547;BME280;41275;51.912;4.388;2023-07-16T00:41:25;100744.75;;;24.14;41.31
21547;BME280;41275;51.912;4.388;2023-07-16T00:46:47;100749.38;;;24.14;41.43
21547;BME280;41275;51.912;4.388;2023-07-16T00:52:12;100754.13;;;24.17;41.53
21547;BME280;41275;51.912;4.388;2023-07-16T00:57:38;100753.16;;;24.13;41.82
21547;BME280;41275;51.912;4.388;2023-07-16T01:03:05;100744.78;;;24.06;42.10
21547;BME280;41275;51.912;4.388;2023-07-16T01:08:34;100751.94;;;24.02;42.45
21547;BME280;41275;51.912;4.388;2023-07-16T01:13:57;100753.03;;;24.00;42.40
21547;BME280;41275;51.912;4.388;2023-07-16T01:19:18;100756.06;;;23.99;42.54
21547;BME280;41275;51.912;4.388;2023-07-16T01:25:05;100741.75;;;23.98;42.67
21547;BME280;41275;51.912;4.388;2023-07-16T01:30:31;100752.84;;;23.97;42.81
21547;BME280;41275;51.912;4.388;2023-07-16T01:35:53;100732.06;;;23.97;42.78
21547;BME280;41275;51.912;4.388;2023-07-16T01:41:15;100749.22;;;24.02;42.55
21547;BME280;41275;51.912;4.388;2023-07-16T01:46:37;100751.59;;;24.03;42.58
21547;BME280;41275;51.912;4.388;2023-07-16T01:51:59;100764.31;;;24.03;42.59
21547;BME280;41275;51.912;4.388;2023-07-16T01:57:21;100765.59;;;23.96;42.88
21547;BME280;41275;51.912;4.388;2023-07-16T02:02:42;100755.09;;;23.95;42.93
21547;BME280;41275;51.912;4.388;2023-07-16T02:08:03;100759.38;;;23.87;43.32
21547;BME280;41275;51.912;4.388;2023-07-16T02:13:25;100752.41;;;23.86;43.43
21547;BME280;41275;51.912;4.388;2023-07-16T02:18:46;100753.03;;;23.83;43.32
21547;BME280;41275;51.912;4.388;2023-07-16T02:24:08;100743.16;;;23.87;43.53
21547;BME280;41275;51.912;4.388;2023-07-16T02:29:29;100753.19;;;23.87;43.65
21547;BME280;41275;51.912;4.388;2023-07-16T02:34:52;100748.09;;;23.85;43.67
21547;BME280;41275;51.912;4.388;2023-07-16T02:40:13;100767.16;;;23.80;43.79
21547;BME280;41275;51.912;4.388;2023-07-16T02:45:34;100754.13;;;23.73;43.86
21547;BME280;41275;51.912;4.388;2023-07-16T02:50:56;100755.06;;;23.69;43.98
21547;BME280;41275;51.912;4.388;2023-07-16T02:56:17;100760.59;;;23.64;43.94
21547;BME280;41275;51.912;4.388;2023-07-16T03:01:38;100759.16;;;23.58;44.33
21547;BME280;41275;51.912;4.388;2023-07-16T03:06:59;100776.81;;;23.55;44.26
21547;BME280;41275;51.912;4.388;2023-07-16T03:12:20;100774.56;;;23.48;44.40
21547;BME280;41275;51.912;4.388;2023-07-16T03:17:42;100781.38;;;23.46;44.84
21547;BME280;41275;51.912;4.388;2023-07-16T03:23:03;100800.28;;;23.46;44.82
21547;BME280;41275;51.912;4.388;2023-07-16T03:28:24;100784.06;;;23.46;44.63
21547;BME280;41275;51.912;4.388;2023-07-16T03:33:45;100777.88;;;23.45;45.03
21547;BME280;41275;51.912;4.388;2023-07-16T03:39:06;100807.31;;;23.64;44.79
21547;BME280;41275;51.912;4.388;2023-07-16T03:44:29;100794.13;;;23.63;44.54
21547;BME280;41275;51.912;4.388;2023-07-16T03:49:50;100817.53;;;23.67;44.60
21547;BME280;41275;51.912;4.388;2023-07-16T03:55:11;100831.78;;;23.59;44.82
21547;BME280;41275;51.912;4.388;2023-07-16T04:00:33;100828.75;;;23.52;44.58
21547;BME280;41275;51.912;4.388;2023-07-16T04:06:04;100839.88;;;23.50;44.89
21547;BME280;41275;51.912;4.388;2023-07-16T04:11:25;100853.50;;;23.45;44.63
21547;BME280;41275;51.912;4.388;2023-07-16T04:16:46;100835.38;;;23.46;44.62
21547;BME280;41275;51.912;4.388;2023-07-16T04:22:08;100837.81;;;23.65;44.40
21547;BME280;41275;51.912;4.388;2023-07-16T04:27:29;100834.88;;;23.84;44.00
21547;BME280;41275;51.912;4.388;2023-07-16T04:32:50;100845.09;;;23.95;43.69
21547;BME280;41275;51.912;4.388;2023-07-16T04:38:11;100849.88;;;23.98;43.34
21547;BME280;41275;51.912;4.388;2023-07-16T04:43:32;100846.97;;;23.86;43.04
21547;BME280;41275;51.912;4.388;2023-07-16T04:48:54;100867.94;;;23.81;42.19
21547;BME280;41275;51.912;4.388;2023-07-16T04:54:15;100868.25;;;23.79;42.09
21547;BME280;41275;51.912;4.388;2023-07-16T04:59:36;100875.75;;;23.82;42.00
21547;BME280;41275;51.912;4.388;2023-07-16T05:04:57;100879.06;;;23.79;41.43
21547;BME280;41275;51.912;4.388;2023-07-16T05:10:18;100876.38;;;23.88;41.49
21547;BME280;41275;51.912;4.388;2023-07-16T05:15:40;100893.56;;;24.00;41.90
21547;BME280;41275;51.912;4.388;2023-07-16T05:21:01;100894.38;;;24.01;42.19
21547;BME280;41275;51.912;4.388;2023-07-16T05:26:22;100885.19;;;24.19;42.14
21547;BME280;41275;51.912;4.388;2023-07-16T05:31:43;100882.03;;;24.43;41.64
21547;BME280;41275;51.912;4.388;2023-07-16T05:37:07;100897.66;;;24.46;41.19
21547;BME280;41275;51.912;4.388;2023-07-16T05:42:28;100897.19;;;24.62;40.58
21547;BME280;41275;51.912;4.388;2023-07-16T05:47:49;100904.31;;;24.66;40.72
21547;BME280;41275;51.912;4.388;2023-07-16T05:53:11;100918.81;;;24.62;40.11
21547;BME280;41275;51.912;4.388;2023-07-16T05:58:32;100924.69;;;24.46;40.73
21547;BME280;41275;51.912;4.388;2023-07-16T06:03:53;100927.09;;;24.65;40.10
21547;BME280;41275;51.912;4.388;2023-07-16T06:09:15;100931.84;;;24.51;40.50
21547;BME280;41275;51.912;4.388;2023-07-16T06:14:36;100937.28;;;24.51;41.05
21547;BME280;41275;51.912;4.388;2023-07-16T06:19:57;100945.56;;;24.55;41.07
21547;BME280;41275;51.912;4.388;2023-07-16T06:25:19;100940.59;;;24.48;41.47
21547;BME280;41275;51.912;4.388;2023-07-16T06:30:40;100945.38;;;24.51;41.79
21547;BME280;41275;51.912;4.388;2023-07-16T06:36:01;100969.13;;;24.97;41.39
21547;BME280;41275;51.912;4.388;2023-07-16T06:41:22;100970.06;;;24.93;41.00
21547;BME280;41275;51.912;4.388;2023-07-16T06:46:44;100974.38;;;25.20;41.01
21547;BME280;41275;51.912;4.388;2023-07-16T06:52:05;100979.94;;;25.32;40.39
21547;BME280;41275;51.912;4.388;2023-07-16T06:57:27;101004.97;;;25.12;40.40
21547;BME280;41275;51.912;4.388;2023-07-16T07:02:48;100993.31;;;25.03;40.70
21547;BME280;41275;51.912;4.388;2023-07-16T07:08:11;100987.25;;;25.32;40.69
21547;BME280;41275;51.912;4.388;2023-07-16T07:13:32;100987.22;;;25.49;40.14
21547;BME280;41275;51.912;4.388;2023-07-16T07:18:54;101004.63;;;25.39;40.05
21547;BME280;41275;51.912;4.388;2023-07-16T07:24:15;101016.09;;;25.19;40.42
21547;BME280;41275;51.912;4.388;2023-07-16T07:29:36;101022.94;;;25.34;40.22
21547;BME280;41275;51.912;4.388;2023-07-16T07:34:57;101016.06;;;25.62;40.15
21547;BME280;41275;51.912;4.388;2023-07-16T07:40:18;101038.22;;;25.56;40.08
21547;BME280;41275;51.912;4.388;2023-07-16T07:45:40;101019.56;;;25.45;40.49
21547;BME280;41275;51.912;4.388;2023-07-16T07:51:01;101036.78;;;25.50;39.94
21547;BME280;41275;51.912;4.388;2023-07-16T07:56:22;101034.72;;;25.55;40.44
21547;BME280;41275;51.912;4.388;2023-07-16T08:01:44;101048.47;;;25.97;40.39
21547;BME280;41275;51.912;4.388;2023-07-16T08:07:05;101051.94;;;26.15;39.72
21547;BME280;41275;51.912;4.388;2023-07-16T08:12:26;101043.09;;;26.56;38.92
21547;BME280;41275;51.912;4.388;2023-07-16T08:17:48;101054.50;;;26.50;38.89
21547;BME280;41275;51.912;4.388;2023-07-16T08:23:09;101047.16;;;26.12;39.40
21547;BME280;41275;51.912;4.388;2023-07-16T08:28:30;101062.59;;;26.20;39.33
21547;BME280;41275;51.912;4.388;2023-07-16T08:33:51;101055.59;;;26.49;39.05
21547;BME280;41275;51.912;4.388;2023-07-16T08:39:12;101063.88;;;26.82;38.39
21547;BME280;41275;51.912;4.388;2023-07-16T08:44:34;101076.00;;;26.84;38.36
21547;BME280;41275;51.912;4.388;2023-07-16T08:49:56;101074.44;;;26.75;38.22
21547;BME280;41275;51.912;4.388;2023-07-16T08:55:17;101086.00;;;26.92;38.08
21547;BME280;41275;51.912;4.388;2023-07-16T09:00:39;101085.16;;;27.22;37.86
21547;BME280;41275;51.912;4.388;2023-07-16T09:06:02;101097.84;;;27.09;36.82
21547;BME280;41275;51.912;4.388;2023-07-16T09:11:25;101106.97;;;27.13;37.35
21547;BME280;41275;51.912;4.388;2023-07-16T09:16:52;101107.06;;;27.37;37.17
21547;BME280;41275;51.912;4.388;2023-07-16T09:22:13;101099.66;;;27.26;37.04
21547;BME280;41275;51.912;4.388;2023-07-16T09:27:35;101101.44;;;27.42;36.48
21547;BME280;41275;51.912;4.388;2023-07-16T09:32:56;101104.31;;;27.58;35.50
21547;BME280;41275;51.912;4.388;2023-07-16T09:38:17;101129.88;;;27.45;35.88
21547;BME280;41275;51.912;4.388;2023-07-16T09:43:40;101112.50;;;27.37;35.88
21547;BME280;41275;51.912;4.388;2023-07-16T09:49:01;101125.13;;;27.21;36.49
21547;BME280;41275;51.912;4.388;2023-07-16T09:54:25;101142.94;;;27.52;36.35
21547;BME280;41275;51.912;4.388;2023-07-16T09:59:47;101147.06;;;27.70;35.98
21547;BME280;41275;51.912;4.388;2023-07-16T10:05:19;101149.63;;;27.75;35.02
21547;BME280;41275;51.912;4.388;2023-07-16T10:10:53;101166.84;;;27.58;34.25
21547;BME280;41275;51.912;4.388;2023-07-16T10:16:23;101172.09;;;27.63;34.33
21547;BME280;41275;51.912;4.388;2023-07-16T10:21:45;101171.25;;;27.30;34.59
21547;BME280;41275;51.912;4.388;2023-07-16T10:27:06;101176.03;;;27.75;34.20
21547;BME280;41275;51.912;4.388;2023-07-16T10:32:28;101160.53;;;27.66;34.44
21547;BME280;41275;51.912;4.388;2023-07-16T10:37:50;101180.91;;;27.60;35.14
21547;BME280;41275;51.912;4.388;2023-07-16T10:43:12;101186.16;;;27.45;35.09
21547;BME280;41275;51.912;4.388;2023-07-16T10:48:33;101183.91;;;27.68;34.03
21547;BME280;41275;51.912;4.388;2023-07-16T10:53:55;101196.00;;;27.79;33.72
21547;BME280;41275;51.912;4.388;2023-07-16T10:59:18;101213.19;;;27.62;32.97
21547;BME280;41275;51.912;4.388;2023-07-16T11:04:40;101218.22;;;27.93;33.41
21547;BME280;41275;51.912;4.388;2023-07-16T11:10:01;101217.41;;;28.13;32.95
21547;BME280;41275;51.912;4.388;2023-07-16T11:15:31;101227.22;;;28.06;32.73
21547;BME280;41275;51.912;4.388;2023-07-16T11:20:53;101227.34;;;27.76;33.48
21547;BME280;41275;51.912;4.388;2023-07-16T11:26:15;101218.66;;;27.83;33.72
21547;BME280;41275;51.912;4.388;2023-07-16T11:31:39;101224.13;;;28.28;33.65
21547;BME280;41275;51.912;4.388;2023-07-16T11:37:11;101236.94;;;28.73;33.00
21547;BME280;41275;51.912;4.388;2023-07-16T11:42:39;101236.13;;;28.73;32.64
21547;BME280;41275;51.912;4.388;2023-07-16T11:48:01;101242.97;;;28.79;32.69
21547;BME280;41275;51.912;4.388;2023-07-16T11:53:25;101237.81;;;29.39;32.67
21547;BME280;41275;51.912;4.388;2023-07-16T11:58:49;101249.53;;;29.39;31.80
21547;BME280;41275;51.912;4.388;2023-07-16T12:04:10;101259.50;;;29.47;31.13
21547;BME280;41275;51.912;4.388;2023-07-16T12:09:31;101241.25;;;28.86;32.31
21547;BME280;41275;51.912;4.388;2023-07-16T12:14:53;101250.81;;;28.93;32.59
21547;BME280;41275;51.912;4.388;2023-07-16T12:20:14;101247.13;;;28.76;33.20
21547;BME280;41275;51.912;4.388;2023-07-16T12:25:35;101255.34;;;28.89;33.54
21547;BME280;41275;51.912;4.388;2023-07-16T12:30:56;101259.41;;;29.31;33.17
21547;BME280;41275;51.912;4.388;2023-07-16T12:36:17;101249.00;;;29.09;32.99
21547;BME280;41275;51.912;4.388;2023-07-16T12:41:39;101262.97;;;29.07;32.86
21547;BME280;41275;51.912;4.388;2023-07-16T12:47:00;101263.72;;;29.57;32.72
21547;BME280;41275;51.912;4.388;2023-07-16T12:52:21;101257.81;;;29.95;32.34
21547;BME280;41275;51.912;4.388;2023-07-16T12:57:42;101277.91;;;30.75;31.13
21547;BME280;41275;51.912;4.388;2023-07-16T13:03:04;101278.16;;;31.01;30.59
21547;BME280;41275;51.912;4.388;2023-07-16T13:08:26;101274.47;;;32.65;28.53
21547;BME280;41275;51.912;4.388;2023-07-16T13:13:47;101261.63;;;32.26;28.42
21547;BME280;41275;51.912;4.388;2023-07-16T13:19:08;101262.28;;;31.97;28.49
21547;BME280;41275;51.912;4.388;2023-07-16T13:24:29;101287.03;;;33.15;27.27
21547;BME280;41275;51.912;4.388;2023-07-16T13:29:51;101284.47;;;32.99;27.31
21547;BME280;41275;51.912;4.388;2023-07-16T13:35:12;101293.13;;;33.02;27.69
21547;BME280;41275;51.912;4.388;2023-07-16T13:40:33;101290.13;;;32.22;27.97
21547;BME280;41275;51.912;4.388;2023-07-16T13:45:54;101298.56;;;32.13;28.23
21547;BME280;41275;51.912;4.388;2023-07-16T13:51:16;101306.88;;;32.59;27.44
21547;BME280;41275;51.912;4.388;2023-07-16T13:56:37;101315.75;;;33.21;27.08
21547;BME280;41275;51.912;4.388;2023-07-16T14:02:02;101317.09;;;33.35;26.74
21547;BME280;41275;51.912;4.388;2023-07-16T14:07:24;101330.41;;;32.41;27.19
21547;BME280;41275;51.912;4.388;2023-07-16T14:13:05;101331.28;;;32.06;27.99
21547;BME280;41275;51.912;4.388;2023-07-16T14:18:26;101343.03;;;31.52;29.46
21547;BME280;41275;51.912;4.388;2023-07-16T14:23:47;101335.78;;;31.28;29.36
21547;BME280;41275;51.912;4.388;2023-07-16T14:29:08;101353.09;;;31.67;29.37
21547;BME280;41275;51.912;4.388;2023-07-16T14:34:32;101329.06;;;31.92;28.98
21547;BME280;41275;51.912;4.388;2023-07-16T14:39:53;101319.78;;;32.82;28.39
21547;BME280;41275;51.912;4.388;2023-07-16T14:45:14;101327.56;;;33.82;26.89
21547;BME280;41275;51.912;4.388;2023-07-16T14:50:35;101320.47;;;34.08;26.99
21547;BME280;41275;51.912;4.388;2023-07-16T14:55:57;101348.00;;;34.49;25.93
21547;BME280;41275;51.912;4.388;2023-07-16T15:01:18;101333.25;;;33.40;26.79
21547;BME280;41275;51.912;4.388;2023-07-16T15:06:39;101338.44;;;33.45;27.22
21547;BME280;41275;51.912;4.388;2023-07-16T15:12:00;101344.22;;;33.40;26.68
21547;BME280;41275;51.912;4.388;2023-07-16T15:17:21;101339.22;;;33.72;26.87
21547;BME280;41275;51.912;4.388;2023-07-16T15:22:43;101344.66;;;33.68;26.93
21547;BME280;41275;51.912;4.388;2023-07-16T15:28:05;101334.53;;;34.40;25.61
21547;BME280;41275;51.912;4.388;2023-07-16T15:33:26;101343.56;;;34.81;25.13
21547;BME280;41275;51.912;4.388;2023-07-16T15:38:47;101347.56;;;33.83;25.57
21547;BME280;41275;51.912;4.388;2023-07-16T15:44:09;101361.09;;;32.50;26.29
21547;BME280;41275;51.912;4.388;2023-07-16T15:49:30;101350.94;;;32.50;27.15
21547;BME280;41275;51.912;4.388;2023-07-16T15:54:51;101332.59;;;32.74;26.11
21547;BME280;41275;51.912;4.388;2023-07-16T16:00:12;101348.28;;;32.54;26.43
21547;BME280;41275;51.912;4.388;2023-07-16T16:05:37;101350.63;;;32.98;25.63
21547;BME280;41275;51.912;4.388;2023-07-16T16:10:58;101343.94;;;32.53;25.75
21547;BME280;41275;51.912;4.388;2023-07-16T16:16:19;101349.41;;;31.95;26.21
21547;BME280;41275;51.912;4.388;2023-07-16T16:21:40;101353.47;;;32.40;26.08
21547;BME280;41275;51.912;4.388;2023-07-16T16:27:02;101350.00;;;33.08;25.38
21547;BME280;41275;51.912;4.388;2023-07-16T16:32:23;101345.28;;;34.18;24.50
21547;BME280;41275;51.912;4.388;2023-07-16T16:37:44;101337.38;;;32.58;26.36
21547;BME280;41275;51.912;4.388;2023-07-16T16:43:05;101339.69;;;32.56;26.02
21547;BME280;41275;51.912;4.388;2023-07-16T16:48:27;101340.28;;;32.45;26.13
21547;BME280;41275;51.912;4.388;2023-07-16T16:53:49;101339.75;;;33.05;26.49
21547;BME280;41275;51.912;4.388;2023-07-16T16:59:10;101355.78;;;31.48;28.13
21547;BME280;41275;51.912;4.388;2023-07-16T17:04:31;101344.81;;;30.69;29.72
21547;BME280;41275;51.912;4.388;2023-07-16T17:09:52;101339.16;;;31.21;29.52
21547;BME280;41275;51.912;4.388;2023-07-16T17:15:14;101347.72;;;30.04;30.66
21547;BME280;41275;51.912;4.388;2023-07-16T17:20:35;101354.97;;;29.59;31.41
21547;BME280;41275;51.912;4.388;2023-07-16T17:25:56;101353.81;;;29.73;30.78
21547;BME280;41275;51.912;4.388;2023-07-16T17:31:17;101353.97;;;31.71;29.35
21547;BME280;41275;51.912;4.388;2023-07-16T17:36:38;101357.16;;;32.47;27.79
21547;BME280;41275;51.912;4.388;2023-07-16T17:42:00;101362.88;;;31.49;28.54
21547;BME280;41275;51.912;4.388;2023-07-16T17:47:21;101350.53;;;30.48;29.92
21547;BME280;41275;51.912;4.388;2023-07-16T17:52:43;101366.66;;;29.48;31.29
21547;BME280;41275;51.912;4.388;2023-07-16T17:58:04;101366.03;;;30.44;30.10
21547;BME280;41275;51.912;4.388;2023-07-16T18:03:25;101371.97;;;29.81;30.85
21547;BME280;41275;51.912;4.388;2023-07-16T18:08:47;101376.31;;;29.57;31.29
21547;BME280;41275;51.912;4.388;2023-07-16T18:14:09;101378.69;;;29.59;31.69
21547;BME280;41275;51.912;4.388;2023-07-16T18:19:33;101375.06;;;29.79;31.49
21547;BME280;41275;51.912;4.388;2023-07-16T18:24:54;101374.38;;;29.33;31.69
21547;BME280;41275;51.912;4.388;2023-07-16T18:30:16;101367.50;;;28.57;32.86
21547;BME280;41275;51.912;4.388;2023-07-16T18:35:38;101371.69;;;28.34;33.08
21547;BME280;41275;51.912;4.388;2023-07-16T18:41:00;101369.38;;;28.03;33.48
21547;BME280;41275;51.912;4.388;2023-07-16T18:46:21;101376.47;;;27.95;33.90
21547;BME280;41275;51.912;4.388;2023-07-16T18:51:42;101381.31;;;27.89;34.14
21547;BME280;41275;51.912;4.388;2023-07-16T18:57:03;101387.97;;;27.71;34.64
21547;BME280;41275;51.912;4.388;2023-07-16T19:02:26;101397.00;;;27.54;35.49
21547;BME280;41275;51.912;4.388;2023-07-16T19:07:47;101388.69;;;27.51;35.74
21547;BME280;41275;51.912;4.388;2023-07-16T19:13:08;101389.25;;;27.35;36.31
21547;BME280;41275;51.912;4.388;2023-07-16T19:18:29;101379.72;;;27.21;36.50
21547;BME280;41275;51.912;4.388;2023-07-16T19:23:52;101381.66;;;27.03;37.23
21547;BME280;41275;51.912;4.388;2023-07-16T19:29:15;101388.41;;;26.88;37.04
21547;BME280;41275;51.912;4.388;2023-07-16T19:34:36;101401.69;;;26.81;37.62
21547;BME280;41275;51.912;4.388;2023-07-16T19:39:58;101408.41;;;26.75;38.02
21547;BME280;41275;51.912;4.388;2023-07-16T19:45:22;101411.13;;;26.57;38.18
21547;BME280;41275;51.912;4.388;2023-07-16T19:50:43;101408.56;;;26.52;38.17
21547;BME280;41275;51.912;4.388;2023-07-16T19:56:08;101415.88;;;26.43;38.88
21547;BME280;41275;51.912;4.388;2023-07-16T20:01:29;101417.47;;;26.35;39.50
21547;BME280;41275;51.912;4.388;2023-07-16T20:06:51;101427.53;;;26.26;39.78
21547;BME280;41275;51.912;4.388;2023-07-16T20:12:12;101429.91;;;26.10;40.37
21547;BME280;41275;51.912;4.388;2023-07-16T20:17:34;101422.06;;;26.00;40.55
21547;BME280;41275;51.912;4.388;2023-07-16T20:22:55;101430.28;;;25.78;41.48
21547;BME280;41275;51.912;4.388;2023-07-16T20:28:19;101430.00;;;25.79;41.48
21547;BME280;41275;51.912;4.388;2023-07-16T20:33:40;101421.97;;;25.74;41.89
21547;BME280;41275;51.912;4.388;2023-07-16T20:39:01;101420.69;;;25.71;42.42
21547;BME280;41275;51.912;4.388;2023-07-16T20:44:22;101435.19;;;25.67;42.74
21547;BME280;41275;51.912;4.388;2023-07-16T20:49:43;101434.22;;;25.63;43.04
21547;BME280;41275;51.912;4.388;2023-07-16T20:55:08;101427.16;;;25.53;43.64
21547;BME280;41275;51.912;4.388;2023-07-16T21:00:32;101427.78;;;25.50;43.46
21547;BME280;41275;51.912;4.388;2023-07-16T21:05:53;101442.75;;;25.48;43.49
21547;BME280;41275;51.912;4.388;2023-07-16T21:11:15;101450.84;;;25.39;43.46
21547;BME280;41275;51.912;4.388;2023-07-16T21:16:36;101452.13;;;25.41;43.32
21547;BME280;41275;51.912;4.388;2023-07-16T21:21:57;101454.56;;;25.52;42.98
21547;BME280;41275;51.912;4.388;2023-07-16T21:27:26;101463.34;;;25.26;43.04
21547;BME280;41275;51.912;4.388;2023-07-16T21:32:47;101462.69;;;25.20;42.81
21547;BME280;41275;51.912;4.388;2023-07-16T21:38:09;101470.97;;;25.02;42.93
21547;BME280;41275;51.912;4.388;2023-07-16T21:43:30;101465.00;;;24.68;43.35
21547;BME280;41275;51.912;4.388;2023-07-16T21:48:51;101467.56;;;24.37;43.93
21547;BME280;41275;51.912;4.388;2023-07-16T21:54:12;101479.19;;;24.24;44.58
21547;BME280;41275;51.912;4.388;2023-07-16T21:59:34;101471.59;;;24.26;44.73
21547;BME280;41275;51.912;4.388;2023-07-16T22:04:55;101476.47;;;24.38;44.59
21547;BME280;41275;51.912;4.388;2023-07-16T22:10:17;101464.25;;;24.40;44.40
21547;BME280;41275;51.912;4.388;2023-07-16T22:15:38;101461.47;;;24.45;44.10
21547;BME280;41275;51.912;4.388;2023-07-16T22:21:00;101462.56;;;24.44;44.14
21547;BME280;41275;51.912;4.388;2023-07-16T22:26:21;101461.56;;;24.40;43.92
21547;BME280;41275;51.912;4.388;2023-07-16T22:31:42;101472.69;;;24.39;44.13
21547;BME280;41275;51.912;4.388;2023-07-16T22:37:03;101467.97;;;24.31;44.69
21547;BME280;41275;51.912;4.388;2023-07-16T22:42:24;101472.97;;;24.37;44.96
21547;BME280;41275;51.912;4.388;2023-07-16T22:47:46;101457.25;;;24.39;44.98
21547;BME280;41275;51.912;4.388;2023-07-16T22:53:07;101468.59;;;24.41;45.44
21547;BME280;41275;51.912;4.388;2023-07-16T22:58:28;101482.91;;;24.42;45.10
21547;BME280;41275;51.912;4.388;2023-07-16T23:03:49;101480.28;;;24.37;44.83
21547;BME280;41275;51.912;4.388;2023-07-16T23:09:11;101485.19;;;24.35;44.26
21547;BME280;41275;51.912;4.388;2023-07-16T23:14:32;101477.19;;;24.30;44.19
21547;BME280;41275;51.912;4.388;2023-07-16T23:19:56;101471.47;;;24.31;43.61
21547;BME280;41275;51.912;4.388;2023-07-16T23:25:18;101463.66;;;24.16;43.85
21547;BME280;41275;51.912;4.388;2023-07-16T23:30:39;101469.78;;;24.08;44.02
21547;BME280;41275;51.912;4.388;2023-07-16T23:36:00;101474.31;;;23.98;44.23
21547;BME280;41275;51.912;4.388;2023-07-16T23:41:21;101468.28;;;23.88;44.65
21547;BME280;41275;51.912;4.388;2023-07-16T23:46:43;101467.97;;;23.89;44.58
21547;BME280;41275;51.912;4.388;2023-07-16T23:52:04;101481.19;;;24.05;44.58
21547;BME280;41275;51.912;4.388;2023-07-16T23:57:25;101473.28;;;24.08;44.47
